createdAt,value
2023-02-27T00:01:34.447Z,61.93
2023-02-27T00:04:01.101Z,61.88
2023-02-27T00:06:28.543Z,61.80
2023-02-27T00:08:55.061Z,61.73
2023-02-27T00:11:21.799Z,62.43
2023-02-27T00:13:48.221Z,62.20
2023-02-27T00:16:14.811Z,62.33
2023-02-27T00:18:41.234Z,62.21
2023-02-27T00:21:07.620Z,62.68
2023-02-27T00:23:34.062Z,62.29
2023-02-27T00:26:00.974Z,62.43
2023-02-27T00:28:28.250Z,62.78
2023-02-27T00:30:54.792Z,62.80
2023-02-27T00:33:21.365Z,63.48
2023-02-27T00:35:58.557Z,63.22
2023-02-27T00:38:25.006Z,63.45
2023-02-27T00:40:51.341Z,63.53
2023-02-27T00:43:17.662Z,63.31
2023-02-27T00:45:44.082Z,63.54
2023-02-27T00:48:10.543Z,64.26
2023-02-27T00:50:37.675Z,64.39
2023-02-27T00:53:04.151Z,64.36
2023-02-27T00:55:30.783Z,64.64
2023-02-27T00:57:57.126Z,64.36
2023-02-27T01:00:23.583Z,64.59
2023-02-27T01:02:50.080Z,65.29
2023-02-27T01:05:16.501Z,64.99
2023-02-27T01:07:42.869Z,65.02
2023-02-27T01:10:10.395Z,64.80
2023-02-27T01:12:36.841Z,64.45
2023-02-27T01:15:04.836Z,65.18
2023-02-27T01:17:31.741Z,64.53
2023-02-27T01:19:58.115Z,65.30
2023-02-27T01:22:24.566Z,65.60
2023-02-27T01:24:51.083Z,65.60
2023-02-27T01:27:17.457Z,65.79
2023-02-27T01:29:43.920Z,65.35
2023-02-27T01:32:10.366Z,65.44
2023-02-27T01:34:36.902Z,66.20
2023-02-27T01:37:03.479Z,65.16
2023-02-27T01:39:29.877Z,65.67
2023-02-27T01:41:56.349Z,65.43
2023-02-27T01:44:22.843Z,65.73
2023-02-27T01:46:49.234Z,66.33
2023-02-27T01:49:31.695Z,66.51
2023-02-27T01:52:03.214Z,65.99
2023-02-27T01:54:31.424Z,65.94
2023-02-27T01:56:57.952Z,65.71
2023-02-27T01:59:24.398Z,65.42
2023-02-27T02:01:51.309Z,64.77
2023-02-27T02:04:30.325Z,65.66
2023-02-27T02:07:05.979Z,64.06
2023-02-27T02:09:34.583Z,65.01
2023-02-27T02:12:00.915Z,64.45
2023-02-27T02:14:27.577Z,65.54
2023-02-27T02:17:32.433Z,65.05
2023-02-27T02:20:20.692Z,64.39
2023-02-27T02:22:59.774Z,64.67
2023-02-27T02:25:47.303Z,65.02
2023-02-27T02:28:17.861Z,64.46
2023-02-27T02:31:06.611Z,65.64
2023-02-27T02:33:38.904Z,64.92
2023-02-27T02:36:22.772Z,65.19
2023-02-27T02:39:21.699Z,65.26
2023-02-27T02:41:58.138Z,65.28
2023-02-27T02:44:28.892Z,64.88
2023-02-27T02:47:05.126Z,64.70
2023-02-27T02:49:46.896Z,64.96
2023-02-27T02:52:20.673Z,65.06
2023-02-27T02:55:26.845Z,65.25
2023-02-27T02:58:03.471Z,65.27
2023-02-27T03:00:41.991Z,65.08
2023-02-27T03:03:50.795Z,65.39
2023-02-27T03:06:23.558Z,65.39
2023-02-27T03:08:55.288Z,64.99
2023-02-27T03:11:24.091Z,65.00
2023-02-27T03:13:51.492Z,65.04
2023-02-27T03:16:25.521Z,64.19
2023-02-27T03:19:16.838Z,63.01
2023-02-27T03:22:05.891Z,63.15
2023-02-27T03:24:37.073Z,63.51
2023-02-27T03:27:05.682Z,63.38
2023-02-27T03:29:43.777Z,62.80
2023-02-27T03:32:23.274Z,63.23
2023-02-27T03:34:49.764Z,63.30
2023-02-27T03:37:24.912Z,62.67
2023-02-27T03:40:01.587Z,62.69
2023-02-27T03:42:38.354Z,62.31
2023-02-27T03:45:24.430Z,62.67
2023-02-27T03:47:51.201Z,62.71
2023-02-27T03:50:17.838Z,62.54
2023-02-27T03:52:45.111Z,63.10
2023-02-27T03:55:25.216Z,63.01
2023-02-27T03:57:52.417Z,62.35
2023-02-27T04:00:23.800Z,62.73
2023-02-27T04:02:51.570Z,62.66
2023-02-27T04:05:20.006Z,62.44
2023-02-27T04:08:04.492Z,62.77
2023-02-27T04:10:50.473Z,63.25
2023-02-27T04:13:45.907Z,62.79
2023-02-27T04:16:38.237Z,63.64
2023-02-27T04:19:17.639Z,62.61
2023-02-27T04:21:56.181Z,62.90
2023-02-27T04:24:32.466Z,63.13
2023-02-27T04:27:02.995Z,62.98
2023-02-27T04:29:38.155Z,63.22
2023-02-27T04:32:26.350Z,63.22
2023-02-27T04:34:59.620Z,63.04
2023-02-27T04:37:40.902Z,62.99
2023-02-27T04:40:09.274Z,63.01
2023-02-27T04:42:39.501Z,63.47
2023-02-27T04:45:08.466Z,63.41
2023-02-27T04:47:40.228Z,63.58
2023-02-27T04:50:13.921Z,64.14
2023-02-27T04:52:43.299Z,63.82
2023-02-27T04:55:17.840Z,63.76
2023-02-27T04:57:49.484Z,64.00
2023-02-27T05:00:16.803Z,63.71
2023-02-27T05:02:48.227Z,64.09
2023-02-27T05:05:17.745Z,63.87
2023-02-27T05:08:02.240Z,64.58
2023-02-27T05:10:51.134Z,63.97
2023-02-27T05:13:21.072Z,63.53
2023-02-27T05:16:00.081Z,63.76
2023-02-27T05:18:26.874Z,64.67
2023-02-27T05:21:22.189Z,63.91
2023-02-27T05:24:12.411Z,63.89
2023-02-27T05:26:47.918Z,64.47
2023-02-27T05:29:27.666Z,64.07
2023-02-27T05:32:05.170Z,65.12
2023-02-27T05:34:39.399Z,64.16
2023-02-27T05:37:11.116Z,64.34
2023-02-27T05:39:39.618Z,64.20
2023-02-27T05:42:18.422Z,63.87
2023-02-27T05:44:51.280Z,64.32
2023-02-27T05:47:20.874Z,64.95
2023-02-27T05:49:53.282Z,64.46
2023-02-27T05:52:23.397Z,63.76
2023-02-27T05:55:18.801Z,63.69
2023-02-27T05:57:53.254Z,63.78
2023-02-27T06:00:34.057Z,63.48
2023-02-27T06:03:00.760Z,63.47
2023-02-27T06:05:27.772Z,64.46
2023-02-27T06:07:54.150Z,64.66
2023-02-27T06:10:21.345Z,64.67
2023-02-27T06:12:48.247Z,63.95
2023-02-27T06:15:15.242Z,64.77
2023-02-27T06:17:41.621Z,64.61
2023-02-27T06:20:10.109Z,65.21
2023-02-27T06:22:36.509Z,64.74
2023-02-27T06:25:03.363Z,64.81
2023-02-27T06:27:29.845Z,65.24
2023-02-27T06:29:57.574Z,65.21
2023-02-27T06:32:25.634Z,65.22
2023-02-27T06:34:52.888Z,65.21
2023-02-27T06:37:19.311Z,65.54
2023-02-27T06:39:45.740Z,65.43
2023-02-27T06:42:12.298Z,65.53
2023-02-27T06:44:38.679Z,65.65
2023-02-27T06:47:05.135Z,66.28
2023-02-27T06:49:31.805Z,65.77
2023-02-27T06:51:58.196Z,65.89
2023-02-27T06:54:24.619Z,66.14
2023-02-27T06:56:51.834Z,65.91
2023-02-27T06:59:18.268Z,65.44
2023-02-27T07:01:44.700Z,65.34
2023-02-27T07:04:14.804Z,65.21
2023-02-27T07:07:35.189Z,65.03
2023-02-27T07:09:28.241Z,65.11
2023-02-27T07:11:54.631Z,65.51
2023-02-27T07:14:21.112Z,65.11
2023-02-27T07:16:50.788Z,65.38
2023-02-27T07:19:18.499Z,65.47
2023-02-27T07:21:44.943Z,64.91
2023-02-27T07:24:11.353Z,65.16
2023-02-27T07:26:37.904Z,65.26
2023-02-27T07:29:04.604Z,65.18
2023-02-27T07:31:31.011Z,65.39
2023-02-27T07:33:57.398Z,64.84
2023-02-27T07:36:27.661Z,65.70
2023-02-27T07:38:54.263Z,65.36
2023-02-27T07:41:30.044Z,65.43
2023-02-27T07:43:56.849Z,65.05
2023-02-27T07:46:24.587Z,65.14
2023-02-27T07:48:51.001Z,64.95
2023-02-27T07:51:17.376Z,65.00
2023-02-27T07:53:43.730Z,64.49
2023-02-27T07:56:10.131Z,64.53
2023-02-27T07:58:36.470Z,65.20
2023-02-27T08:01:02.804Z,64.06
2023-02-27T08:03:29.201Z,63.59
2023-02-27T08:05:55.564Z,63.23
2023-02-27T08:08:21.947Z,62.72
2023-02-27T08:10:49.983Z,62.50
2023-02-27T08:13:18.018Z,62.10
2023-02-27T08:15:47.167Z,62.06
2023-02-27T08:18:13.620Z,61.62
2023-02-27T08:20:39.997Z,61.89
2023-02-27T08:23:06.915Z,61.22
2023-02-27T08:25:33.631Z,61.16
2023-02-27T08:28:00.002Z,61.31
2023-02-27T08:30:26.391Z,61.15
2023-02-27T08:32:53.098Z,60.59
2023-02-27T08:35:19.889Z,60.25
2023-02-27T08:37:46.302Z,61.39
2023-02-27T08:40:12.788Z,61.33
2023-02-27T08:42:39.171Z,60.70
2023-02-27T08:45:06.246Z,60.81
2023-02-27T08:47:32.598Z,61.63
2023-02-27T08:49:58.935Z,61.64
2023-02-27T08:52:25.267Z,61.49
2023-02-27T08:54:51.801Z,61.98
2023-02-27T08:57:18.215Z,61.89
2023-02-27T08:59:44.770Z,62.10
2023-02-27T09:02:11.601Z,61.88
2023-02-27T09:04:38.028Z,61.55
2023-02-27T09:07:04.421Z,61.55
2023-02-27T09:09:30.830Z,61.41
2023-02-27T09:11:57.288Z,61.00
2023-02-27T09:14:24.082Z,60.93
2023-02-27T09:16:50.535Z,60.64
2023-02-27T09:19:16.989Z,61.00
2023-02-27T09:21:43.422Z,60.39
2023-02-27T09:24:19.338Z,61.03
2023-02-27T09:26:46.857Z,60.80
2023-02-27T09:29:13.387Z,60.14
2023-02-27T09:31:39.872Z,59.52
2023-02-27T09:34:06.301Z,59.40
2023-02-27T09:36:32.735Z,60.01
2023-02-27T09:38:59.659Z,59.91
2023-02-27T09:41:44.945Z,58.63
2023-02-27T09:44:47.332Z,59.25
2023-02-27T09:47:18.740Z,58.91
2023-02-27T09:50:12.004Z,57.41
2023-02-27T09:52:39.425Z,57.81
2023-02-27T09:55:12.242Z,57.55
2023-02-27T09:57:48.961Z,57.10
2023-02-27T10:00:29.067Z,57.22
2023-02-27T10:03:07.710Z,57.38
2023-02-27T10:05:58.724Z,55.76
2023-02-27T10:08:30.450Z,55.44
2023-02-27T10:11:03.640Z,56.99
2023-02-27T10:13:39.454Z,55.27
2023-02-27T10:16:06.994Z,55.94
2023-02-27T10:18:39.950Z,55.80
2023-02-27T10:21:10.435Z,55.15
2023-02-27T10:23:56.549Z,54.09
2023-02-27T10:26:30.096Z,54.52
2023-02-27T10:29:12.013Z,55.85
2023-02-27T10:31:38.744Z,56.27
2023-02-27T10:34:05.427Z,54.58
2023-02-27T10:36:34.542Z,55.46
2023-02-27T10:39:11.828Z,56.94
2023-02-27T10:41:40.045Z,56.43
2023-02-27T10:44:06.692Z,55.75
2023-02-27T10:46:36.081Z,53.71
2023-02-27T10:49:05.756Z,55.02
2023-02-27T10:51:36.912Z,54.45
2023-02-27T10:54:19.898Z,53.82
2023-02-27T10:56:49.194Z,53.13
2023-02-27T10:59:23.672Z,52.92
2023-02-27T11:01:53.684Z,52.90
2023-02-27T11:04:36.594Z,51.83
2023-02-27T11:07:06.520Z,51.15
2023-02-27T11:09:34.034Z,52.62
2023-02-27T11:12:27.710Z,51.34
2023-02-27T11:14:57.351Z,51.98
2023-02-27T11:17:30.004Z,52.36
2023-02-27T11:19:57.710Z,51.75
2023-02-27T11:22:27.102Z,51.20
2023-02-27T11:25:17.144Z,51.00
2023-02-27T11:27:46.016Z,51.65
2023-02-27T11:30:31.448Z,50.51
2023-02-27T11:32:59.826Z,51.68
2023-02-27T11:35:32.401Z,52.11
2023-02-27T11:38:20.722Z,50.24
2023-02-27T11:40:56.230Z,50.65
2023-02-27T11:43:47.872Z,51.83
2023-02-27T11:46:46.281Z,52.08
2023-02-27T11:49:28.611Z,51.05
2023-02-27T11:52:03.924Z,51.49
2023-02-27T11:54:49.296Z,51.00
2023-02-27T11:57:27.465Z,50.59
2023-02-27T12:00:19.693Z,50.53
2023-02-27T12:03:05.206Z,49.50
2023-02-27T12:05:56.189Z,48.67
2023-02-27T12:08:25.489Z,48.45
2023-02-27T12:11:07.739Z,48.32
2023-02-27T12:13:40.117Z,47.39
2023-02-27T12:16:21.859Z,46.40
2023-02-27T12:18:52.994Z,46.32
2023-02-27T12:21:24.619Z,45.89
2023-02-27T12:23:55.817Z,45.64
2023-02-27T12:26:39.827Z,45.40
2023-02-27T12:29:55.070Z,45.50
2023-02-27T12:32:28.505Z,43.98
2023-02-27T12:35:00.333Z,44.93
2023-02-27T12:37:28.873Z,44.06
2023-02-27T12:39:58.765Z,45.16
2023-02-27T12:42:37.426Z,43.96
2023-02-27T12:45:21.853Z,43.78
2023-02-27T12:48:25.658Z,43.51
2023-02-27T12:50:54.305Z,43.01
2023-02-27T12:53:57.627Z,41.81
2023-02-27T12:56:30.385Z,42.29
2023-02-27T12:59:02.620Z,41.77
2023-02-27T13:01:39.588Z,41.95
2023-02-27T13:04:26.299Z,42.27
2023-02-27T13:07:05.284Z,41.35
2023-02-27T13:09:49.785Z,41.09
2023-02-27T13:12:32.304Z,40.58
2023-02-27T13:15:27.010Z,42.91
2023-02-27T13:18:03.403Z,42.91
2023-02-27T13:20:35.821Z,42.51
2023-02-27T13:23:08.471Z,42.62
2023-02-27T13:25:37.032Z,42.21
2023-02-27T13:28:07.627Z,42.08
2023-02-27T13:30:40.939Z,42.89
2023-02-27T13:33:26.121Z,43.27
2023-02-27T13:36:11.369Z,41.97
2023-02-27T13:38:48.688Z,43.08
2023-02-27T13:41:21.022Z,42.71
2023-02-27T13:43:52.505Z,42.35
2023-02-27T13:46:30.186Z,40.93
2023-02-27T13:49:05.835Z,41.33
2023-02-27T13:51:35.060Z,42.62
2023-02-27T13:54:13.695Z,41.24
2023-02-27T13:56:44.986Z,42.97
2023-02-27T13:59:29.937Z,43.24
2023-02-27T14:01:59.244Z,44.07
2023-02-27T14:04:34.440Z,43.60
2023-02-27T14:07:07.386Z,44.18
2023-02-27T14:09:37.008Z,44.05
2023-02-27T14:12:06.279Z,44.82
2023-02-27T14:14:44.972Z,44.36
2023-02-27T14:17:37.151Z,44.13
2023-02-27T14:20:12.388Z,44.83
2023-02-27T14:23:16.646Z,44.46
2023-02-27T14:25:53.391Z,42.45
2023-02-27T14:28:26.159Z,41.12
2023-02-27T14:31:01.149Z,41.99
2023-02-27T14:33:41.349Z,41.24
2023-02-27T14:36:14.012Z,39.94
2023-02-27T14:38:41.044Z,39.70
2023-02-27T14:41:12.244Z,40.55
2023-02-27T14:43:45.604Z,42.29
2023-02-27T14:46:20.531Z,42.30
2023-02-27T14:48:46.963Z,42.14
2023-02-27T14:51:15.065Z,41.65
2023-02-27T14:53:41.576Z,40.74
2023-02-27T14:56:18.055Z,39.13
2023-02-27T14:58:55.500Z,38.88
2023-02-27T15:01:25.845Z,38.26
2023-02-27T15:03:56.859Z,38.45
2023-02-27T15:06:35.968Z,39.80
2023-02-27T15:09:03.217Z,39.90
2023-02-27T15:11:30.118Z,40.63
2023-02-27T15:13:59.354Z,39.50
2023-02-27T15:16:37.324Z,39.97
2023-02-27T15:19:18.067Z,40.03
2023-02-27T15:21:52.664Z,40.78
2023-02-27T15:24:40.671Z,40.51
2023-02-27T15:27:21.485Z,40.37
2023-02-27T15:29:51.808Z,40.47
2023-02-27T15:32:32.492Z,40.65
2023-02-27T15:35:04.740Z,40.56
2023-02-27T15:37:33.596Z,40.39
2023-02-27T15:40:00.953Z,39.47
2023-02-27T15:42:30.492Z,40.40
2023-02-27T15:44:58.395Z,40.66
2023-02-27T15:47:30.062Z,41.20
2023-02-27T15:50:08.925Z,41.61
2023-02-27T15:53:02.693Z,41.95
2023-02-27T15:55:38.753Z,41.87
2023-02-27T15:58:30.369Z,42.33
2023-02-27T16:01:08.530Z,42.44
2023-02-27T16:03:37.908Z,44.75
2023-02-27T16:06:34.543Z,45.96
2023-02-27T16:09:27.401Z,45.66
2023-02-27T16:12:23.047Z,45.59
2023-02-27T16:14:54.542Z,46.09
2023-02-27T16:17:29.405Z,46.11
2023-02-27T16:19:56.945Z,46.22
2023-02-27T16:22:23.413Z,46.83
2023-02-27T16:24:50.721Z,45.81
2023-02-27T16:27:25.531Z,46.20
2023-02-27T16:29:54.375Z,46.34
2023-02-27T16:32:45.807Z,46.69
2023-02-27T16:35:23.096Z,46.36
2023-02-27T16:37:50.662Z,46.87
2023-02-27T16:40:18.259Z,47.01
2023-02-27T16:42:45.111Z,47.13
2023-02-27T16:45:17.447Z,47.48
2023-02-27T16:47:44.151Z,47.69
2023-02-27T16:50:19.867Z,48.09
2023-02-27T16:52:46.263Z,48.60
2023-02-27T16:55:12.631Z,48.53
2023-02-27T16:57:39.109Z,48.38
2023-02-27T17:00:07.718Z,48.58
2023-02-27T17:02:34.339Z,47.06
2023-02-27T17:05:01.492Z,48.34
2023-02-27T17:07:27.897Z,47.47
2023-02-27T17:09:54.285Z,47.36
2023-02-27T17:15:20.599Z,48.39
2023-02-27T17:17:46.939Z,48.04
2023-02-27T17:20:14.514Z,47.91
2023-02-27T17:22:42.866Z,47.43
2023-02-27T17:25:14.255Z,47.47
2023-02-27T17:27:43.261Z,47.80
2023-02-27T17:30:10.504Z,47.44
2023-02-27T17:32:37.056Z,47.95
2023-02-27T17:35:04.052Z,47.13
2023-02-27T17:37:30.550Z,47.13
2023-02-27T17:39:57.046Z,47.70
2023-02-27T17:42:25.584Z,47.36
2023-02-27T17:44:52.034Z,48.06
2023-02-27T17:47:18.460Z,48.46
2023-02-27T17:49:44.802Z,48.56
2023-02-27T17:52:11.413Z,49.16
2023-02-27T17:54:37.954Z,48.70
2023-02-27T17:57:06.546Z,49.00
2023-02-27T17:59:33.436Z,49.58
2023-02-27T18:01:59.812Z,49.93
2023-02-27T18:04:26.417Z,50.28
2023-02-27T18:06:53.165Z,50.44
2023-02-27T18:09:19.545Z,50.24
2023-02-27T18:11:46.038Z,51.22
2023-02-27T18:14:12.441Z,51.17
2023-02-27T18:16:38.947Z,50.88
2023-02-27T18:19:06.367Z,52.16
2023-02-27T18:21:33.251Z,52.45
2023-02-27T18:23:59.918Z,52.60
2023-02-27T18:26:31.888Z,52.08
2023-02-27T18:29:05.442Z,52.31
2023-02-27T18:31:40.172Z,51.57
2023-02-27T18:34:06.977Z,51.45
2023-02-27T18:36:34.266Z,51.48
2023-02-27T18:39:01.080Z,51.24
2023-02-27T18:41:28.179Z,52.17
2023-02-27T18:43:54.665Z,51.96
2023-02-27T18:46:21.203Z,51.30
2023-02-27T18:48:48.368Z,51.33
2023-02-27T18:51:16.170Z,52.37
2023-02-27T18:53:44.932Z,51.84
2023-02-27T18:56:16.562Z,51.87
2023-02-27T18:58:43.679Z,52.29
2023-02-27T19:01:19.269Z,52.90
2023-02-27T19:03:46.170Z,53.13
2023-02-27T19:06:13.488Z,52.76
2023-02-27T19:08:40.120Z,53.73
2023-02-27T19:11:06.620Z,54.49
2023-02-27T19:13:33.039Z,53.85
2023-02-27T19:16:02.918Z,54.38
2023-02-27T19:18:29.711Z,54.36
2023-02-27T19:20:57.374Z,55.33
2023-02-27T19:23:23.970Z,55.72
2023-02-27T19:25:58.283Z,55.78
2023-02-27T19:28:24.774Z,54.81
2023-02-27T19:30:51.104Z,55.52
2023-02-27T19:33:17.666Z,56.20
2023-02-27T19:35:44.083Z,57.17
2023-02-27T19:38:10.709Z,57.51
2023-02-27T19:40:37.112Z,57.51
2023-02-27T19:43:03.578Z,57.02
2023-02-27T19:45:30.050Z,57.47
2023-02-27T19:47:56.442Z,57.57
2023-02-27T19:50:22.778Z,57.75
2023-02-27T19:52:49.126Z,58.11
2023-02-27T19:55:15.623Z,58.24
2023-02-27T19:57:42.430Z,57.82
2023-02-27T20:00:10.022Z,58.15
2023-02-27T20:02:36.380Z,58.63
2023-02-27T20:05:03.170Z,58.11
2023-02-27T20:07:30.332Z,57.35
2023-02-27T20:09:56.694Z,57.84
2023-02-27T20:12:23.581Z,58.08
2023-02-27T20:14:50.142Z,57.81
2023-02-27T20:17:16.563Z,58.72
2023-02-27T20:19:43.014Z,58.18
2023-02-27T20:22:09.804Z,58.98
2023-02-27T20:24:36.287Z,58.79
2023-02-27T20:27:02.853Z,58.93
2023-02-27T20:29:29.341Z,59.03
2023-02-27T20:31:57.222Z,59.00
2023-02-27T20:34:26.330Z,58.97
2023-02-27T20:36:54.758Z,59.69
2023-02-27T20:39:23.427Z,59.12
2023-02-27T20:41:50.013Z,58.88
2023-02-27T20:44:16.521Z,59.24
2023-02-27T20:46:43.697Z,59.65
2023-02-27T20:49:11.580Z,59.44
2023-02-27T20:51:39.239Z,59.78
2023-02-27T20:54:08.410Z,59.77
2023-02-27T20:56:38.150Z,60.59
2023-02-27T20:59:06.362Z,60.24
2023-02-27T21:01:33.149Z,60.91
2023-02-27T21:04:00.278Z,61.16
2023-02-27T21:06:27.452Z,60.83
2023-02-27T21:08:55.740Z,61.78
2023-02-27T21:11:28.099Z,61.44
2023-02-27T21:13:55.928Z,61.91
2023-02-27T21:16:24.204Z,62.16
2023-02-27T21:18:51.430Z,62.42
2023-02-27T21:21:22.702Z,62.38
2023-02-27T21:23:49.321Z,62.59
2023-02-27T21:26:40.479Z,62.94
2023-02-27T21:29:09.826Z,63.83
2023-02-27T21:31:37.326Z,63.91
2023-02-27T21:34:06.987Z,63.97
2023-02-27T21:36:35.800Z,64.18
2023-02-27T21:39:05.456Z,64.46
2023-02-27T21:41:32.137Z,64.06
2023-02-27T21:43:59.352Z,63.59
2023-02-27T21:46:26.067Z,65.07
2023-02-27T21:48:52.560Z,65.29
2023-02-27T21:51:33.016Z,64.47
2023-02-27T21:54:05.231Z,65.12
2023-02-27T21:56:31.812Z,64.84
2023-02-27T21:59:01.129Z,64.80
2023-02-27T22:01:28.637Z,64.89
2023-02-27T22:03:55.295Z,64.62
2023-02-27T22:06:27.127Z,64.65
2023-02-27T22:08:58.264Z,64.72
2023-02-27T22:11:26.752Z,64.53
2023-02-27T22:13:53.467Z,63.62
2023-02-27T22:16:20.406Z,64.34
2023-02-27T22:18:47.706Z,64.42
2023-02-27T22:21:17.232Z,65.20
2023-02-27T22:23:46.911Z,64.74
2023-02-27T22:26:15.981Z,65.00
2023-02-27T22:28:42.602Z,65.49
2023-02-27T22:31:20.703Z,65.02
2023-02-27T22:33:49.941Z,65.10
2023-02-27T22:36:29.065Z,64.28
2023-02-27T22:38:56.019Z,63.71
2023-02-27T22:41:25.059Z,63.64
2023-02-27T22:43:51.507Z,63.77
2023-02-27T22:46:28.338Z,64.10
2023-02-27T22:48:56.278Z,63.59
2023-02-27T22:51:24.661Z,63.50
2023-02-27T22:53:51.677Z,63.26
2023-02-27T22:56:18.046Z,63.18
2023-02-27T22:58:45.428Z,62.64
2023-02-27T23:01:13.411Z,62.22
2023-02-27T23:03:40.634Z,61.92
2023-02-27T23:06:09.100Z,61.96
2023-02-27T23:08:35.850Z,61.98
2023-02-27T23:11:02.482Z,61.44
2023-02-27T23:13:29.034Z,61.63
2023-02-27T23:15:55.465Z,61.96
2023-02-27T23:18:21.980Z,61.52
2023-02-27T23:20:48.384Z,61.67
2023-02-27T23:23:14.885Z,62.11
2023-02-27T23:25:41.618Z,62.60
2023-02-27T23:28:08.048Z,62.83
2023-02-27T23:30:34.640Z,63.57
2023-02-27T23:33:01.331Z,64.14
2023-02-27T23:35:28.629Z,65.42
2023-02-27T23:37:56.933Z,66.29
2023-02-27T23:40:24.150Z,66.75
2023-02-27T23:42:50.646Z,67.18
2023-02-27T23:45:23.145Z,67.38
2023-02-27T23:47:54.688Z,68.18
2023-02-27T23:50:23.544Z,68.48
2023-02-27T23:52:51.148Z,68.93
2023-02-27T23:55:18.933Z,69.24
2023-02-27T23:57:45.764Z,69.42
